Time;durP1;ratioP1;P1;durP2;ratioP2;P2;SDS_P1;SDS_P2;PMS_P1;PMS_P2;Temp;Humidity;BMP_temperature;BMP_pressure;BME280_temperature;BME280_humidity;BME280_pressure;Samples;Min_cycle;Max_cycle;Signal;HPM_P1;HPM_P2
2022/02/12 00:00:31;;;;;;;10.20;3.88;;;-2.00;99.90;;;;;;5051391;28;20025;-55
2022/02/12 00:02:57;;;;;;;11.27;4.15;;;-2.10;99.90;;;;;;5051142;28;20028;-56
2022/02/12 00:05:25;;;;;;;7.32;3.72;;;-2.10;99.90;;;;;;5065386;28;20481;-56
2022/02/12 00:07:51;;;;;;;8.75;4.28;;;-2.10;99.90;;;;;;5057596;28;20112;-58
2022/02/12 00:10:18;;;;;;;7.10;4.20;;;-2.10;99.90;;;;;;5050462;28;20031;-57
2022/02/12 00:12:44;;;;;;;8.05;4.00;;;-2.10;99.90;;;;;;5050378;28;20064;-56
2022/02/12 00:15:10;;;;;;;7.18;3.20;;;-2.10;99.90;;;;;;5051147;28;20490;-57
2022/02/12 00:17:36;;;;;;;10.23;3.72;;;-2.10;99.90;;;;;;5061204;28;20589;-54
2022/02/12 00:20:04;;;;;;;7.30;3.47;;;-2.20;99.90;;;;;;5050133;28;20025;-57
2022/02/12 00:22:29;;;;;;;10.15;4.07;;;-2.20;99.90;;;;;;5048146;28;20024;-57
2022/02/12 00:24:55;;;;;;;11.27;3.58;;;-2.20;99.90;;;;;;5065244;28;20112;-57
2022/02/12 00:27:20;;;;;;;10.73;3.55;;;-2.20;99.90;;;;;;5059500;28;20029;-55
2022/02/12 00:29:46;;;;;;;5.88;3.80;;;-2.20;99.90;;;;;;5050912;28;20385;-56
2022/02/12 00:32:12;;;;;;;8.65;3.47;;;-2.10;99.90;;;;;;5048802;28;20503;-56
2022/02/12 00:34:37;;;;;;;8.13;4.10;;;-2.20;99.90;;;;;;5049554;28;20028;-56
2022/02/12 00:37:03;;;;;;;9.80;4.22;;;-2.10;99.90;;;;;;5049414;28;20458;-55
2022/02/12 00:39:29;;;;;;;8.93;3.67;;;-2.10;99.90;;;;;;5049766;28;20554;-54
2022/02/12 00:41:57;;;;;;;8.95;4.07;;;-2.10;99.90;;;;;;5049440;28;20635;-54
2022/02/12 00:44:23;;;;;;;10.15;3.90;;;-2.10;99.90;;;;;;5049483;28;20036;-55
2022/02/12 00:46:52;;;;;;;10.75;3.85;;;-2.10;99.90;;;;;;5049954;28;20033;-56
2022/02/12 00:49:18;;;;;;;8.48;3.30;;;-2.00;99.90;;;;;;5049897;28;20029;-53
2022/02/12 00:51:44;;;;;;;8.50;4.00;;;-2.00;99.90;;;;;;5050289;28;20645;-56
2022/02/12 00:54:09;;;;;;;12.30;3.70;;;-2.00;99.90;;;;;;5049003;28;20113;-56
2022/02/12 00:56:35;;;;;;;10.40;4.20;;;-2.00;99.90;;;;;;5031814;28;20083;-56
2022/02/12 00:59:00;;;;;;;6.68;3.22;;;-2.00;99.90;;;;;;5050257;28;20107;-55
2022/02/12 01:01:26;;;;;;;8.88;3.58;;;-2.00;99.90;;;;;;5067115;28;20445;-57
2022/02/12 01:03:53;;;;;;;10.30;4.10;;;-2.00;99.90;;;;;;5047450;28;20538;-54
2022/02/12 01:06:19;;;;;;;6.40;2.90;;;-1.90;99.90;;;;;;5049850;28;20065;-57
2022/02/12 01:08:45;;;;;;;4.15;2.95;;;-1.90;99.90;;;;;;5051554;28;20068;-54
2022/02/12 01:11:12;;;;;;;9.07;3.42;;;-2.00;99.90;;;;;;5052304;28;20033;-56
2022/02/12 01:13:39;;;;;;;6.05;3.03;;;-2.00;99.90;;;;;;5068395;28;20028;-55
2022/02/12 01:16:04;;;;;;;8.88;3.20;;;-2.00;99.90;;;;;;5067261;28;20028;-56
2022/02/12 01:18:30;;;;;;;7.10;3.92;;;-2.00;99.90;;;;;;5067309;28;20583;-54
2022/02/12 01:21:07;;;;;;;6.13;3.58;;;-2.00;99.90;;;;;;5052886;28;20036;-55
2022/02/12 01:23:33;;;;;;;7.80;3.42;;;-2.00;99.90;;;;;;5052817;28;20044;-54
2022/02/12 01:25:59;;;;;;;4.95;3.83;;;-2.00;99.90;;;;;;5062485;28;20029;-55
2022/02/12 01:28:25;;;;;;;6.35;3.47;;;-2.10;99.90;;;;;;5069091;28;20044;-57
2022/02/12 01:30:50;;;;;;;7.53;3.22;;;-2.10;99.90;;;;;;5062988;28;20094;-53
2022/02/12 01:33:16;;;;;;;10.05;3.20;;;-2.10;99.90;;;;;;5067159;28;20036;-52
2022/02/12 01:35:42;;;;;;;10.38;3.63;;;-2.10;99.90;;;;;;5065465;28;20515;-57
2022/02/12 01:38:07;;;;;;;6.32;3.47;;;-2.10;99.90;;;;;;5049307;28;20021;-55
2022/02/12 01:40:34;;;;;;;5.15;3.38;;;-2.10;99.90;;;;;;5050326;28;20039;-54
2022/02/12 01:43:03;;;;;;;4.97;3.42;;;-2.10;99.90;;;;;;5056014;28;20075;-54
2022/02/12 01:45:29;;;;;;;5.63;3.78;;;-2.20;99.90;;;;;;5049553;28;20048;-55
2022/02/12 01:47:55;;;;;;;5.85;3.03;;;-2.20;99.90;;;;;;5049681;28;20078;-54
2022/02/12 01:50:21;;;;;;;7.32;3.80;;;-2.20;99.90;;;;;;5049266;28;20447;-54
2022/02/12 01:52:47;;;;;;;6.45;3.47;;;-2.20;99.90;;;;;;5049329;28;20021;-56
2022/02/12 01:55:13;;;;;;;6.63;3.38;;;-2.20;99.90;;;;;;5031016;28;20488;-54
2022/02/12 01:57:39;;;;;;;5.55;3.03;;;-2.30;99.90;;;;;;5051788;28;20038;-55
2022/02/12 02:00:08;;;;;;;5.18;3.33;;;-2.30;99.90;;;;;;5062415;28;20032;-56
2022/02/12 02:02:34;;;;;;;8.07;3.35;;;-2.30;99.90;;;;;;5067484;28;20032;-54
2022/02/12 02:05:00;;;;;;;8.25;3.35;;;-2.30;99.90;;;;;;5068057;28;20697;-56
2022/02/12 02:07:25;;;;;;;8.38;3.38;;;-2.30;99.90;;;;;;5060764;28;20033;-53
2022/02/12 02:09:51;;;;;;;9.10;3.28;;;-2.30;99.90;;;;;;5050324;28;20025;-56
2022/02/12 02:12:17;;;;;;;7.07;3.25;;;-2.40;99.90;;;;;;5056176;28;20029;-53
2022/02/12 02:14:42;;;;;;;8.80;3.88;;;-2.40;99.90;;;;;;5048971;28;20025;-54
2022/02/12 02:17:09;;;;;;;4.28;3.28;;;-2.40;99.90;;;;;;5049034;28;20025;-57
2022/02/12 02:19:36;;;;;;;7.07;3.10;;;-2.40;99.90;;;;;;5050686;28;20021;-51
2022/02/12 02:22:03;;;;;;;5.22;3.17;;;-2.40;99.90;;;;;;5068619;28;20086;-56
2022/02/12 02:24:29;;;;;;;9.85;3.13;;;-2.40;99.90;;;;;;5066681;28;20070;-54
2022/02/12 02:27:14;;;;;;;6.43;3.33;;;-2.40;99.90;;;;;;5066242;28;20419;-55
2022/02/12 02:29:44;;;;;;;6.50;3.08;;;-2.50;99.90;;;;;;5064244;28;20642;-53
2022/02/12 02:32:12;;;;;;;6.72;3.15;;;-2.50;99.90;;;;;;5051309;28;20024;-56
2022/02/12 02:34:46;;;;;;;6.43;3.38;;;-2.50;99.90;;;;;;5071807;28;20028;-56
2022/02/12 02:37:11;;;;;;;8.77;3.42;;;-2.50;99.90;;;;;;5045592;28;20029;-57
2022/02/12 02:39:37;;;;;;;9.00;3.92;;;-2.60;99.90;;;;;;5054479;28;20033;-57
2022/02/12 02:42:03;;;;;;;6.00;3.75;;;-2.60;99.90;;;;;;5070176;28;20219;-56
2022/02/12 02:44:29;;;;;;;4.85;3.60;;;-2.60;99.90;;;;;;5071777;28;20031;-56
2022/02/12 02:46:55;;;;;;;7.63;3.70;;;-2.60;99.90;;;;;;5072007;28;20099;-54
2022/02/12 02:49:20;;;;;;;6.75;3.70;;;-2.60;99.90;;;;;;5071696;28;20060;-54
2022/02/12 02:57:14;;;;;;;6.97;3.90;;;-2.60;99.90;;;;;;5042494;28;20078;-53
2022/02/12 02:59:39;;;;;;;7.13;3.08;;;-2.60;99.90;;;;;;5057407;28;20107;-51
2022/02/12 03:02:05;;;;;;;8.35;4.20;;;-2.60;99.90;;;;;;5071352;28;20024;-54
2022/02/12 03:04:31;;;;;;;10.15;3.60;;;-2.60;99.90;;;;;;5059193;28;20032;-50
2022/02/12 03:06:57;;;;;;;9.00;3.35;;;-2.60;99.90;;;;;;5051575;28;20108;-55
2022/02/12 03:09:22;;;;;;;12.25;4.47;;;-2.60;99.90;;;;;;5052890;28;20036;-52
2022/02/12 03:11:49;;;;;;;6.72;3.58;;;-2.60;99.90;;;;;;5062282;28;20107;-54
2022/02/12 03:14:14;;;;;;;8.13;4.13;;;-2.60;99.90;;;;;;5069076;28;20025;-57
2022/02/12 03:16:40;;;;;;;7.43;3.25;;;-2.60;99.90;;;;;;5052069;28;20027;-55
2022/02/12 03:19:06;;;;;;;9.30;4.38;;;-2.60;99.90;;;;;;5051653;28;20091;-53
2022/02/12 03:21:32;;;;;;;5.47;3.85;;;-2.60;99.90;;;;;;5034680;28;20036;-54
2022/02/12 03:23:57;;;;;;;8.25;4.18;;;-2.60;99.90;;;;;;5051235;28;20470;-56
2022/02/12 03:26:23;;;;;;;9.63;4.75;;;-2.60;99.90;;;;;;5063929;28;20029;-55
2022/02/12 03:28:49;;;;;;;7.07;3.40;;;-2.50;99.90;;;;;;5071273;28;20025;-58
2022/02/12 03:31:14;;;;;;;11.20;4.28;;;-2.50;99.90;;;;;;5069330;28;20025;-53
2022/02/12 03:33:40;;;;;;;6.75;4.30;;;-2.50;99.90;;;;;;5070241;28;20032;-54
2022/02/12 03:36:06;;;;;;;9.80;4.57;;;-2.50;99.90;;;;;;5055846;28;20070;-51
2022/02/12 03:38:35;;;;;;;5.55;4.45;;;-2.50;99.90;;;;;;5034283;28;20052;-55
2022/02/12 03:41:04;;;;;;;10.43;4.95;;;-2.50;99.90;;;;;;5064431;28;20020;-52
2022/02/12 03:43:31;;;;;;;8.13;4.13;;;-2.40;99.90;;;;;;5068554;28;20039;-55
2022/02/12 03:45:57;;;;;;;11.05;4.32;;;-2.40;99.90;;;;;;5070623;28;20515;-54
2022/02/12 03:48:24;;;;;;;8.05;3.97;;;-2.40;99.90;;;;;;5070391;28;20024;-55
2022/02/12 03:50:52;;;;;;;7.28;4.10;;;-2.40;99.90;;;;;;5070648;28;20542;-56
2022/02/12 03:53:17;;;;;;;10.50;4.65;;;-2.40;99.90;;;;;;5070659;28;20023;-54
2022/02/12 03:55:43;;;;;;;11.13;4.40;;;-2.40;99.90;;;;;;5070236;28;20028;-54
2022/02/12 03:58:11;;;;;;;7.65;3.83;;;-2.40;99.90;;;;;;5057660;28;20025;-57
2022/02/12 04:00:38;;;;;;;9.00;4.60;;;-2.50;99.90;;;;;;5070144;28;20413;-53
2022/02/12 04:03:04;;;;;;;6.97;3.97;;;-2.50;99.90;;;;;;5051964;28;20032;-53
2022/02/12 04:05:30;;;;;;;9.35;4.60;;;-2.50;99.90;;;;;;5070062;28;20025;-55
2022/02/12 04:07:56;;;;;;;9.75;4.45;;;-2.50;99.90;;;;;;5070301;28;20568;-53
2022/02/12 04:10:22;;;;;;;7.90;3.70;;;-2.60;99.90;;;;;;5069089;28;20036;-55
2022/02/12 04:12:48;;;;;;;8.68;4.03;;;-2.60;99.90;;;;;;5068806;28;20036;-55
2022/02/12 04:15:14;;;;;;;7.53;4.28;;;-2.60;99.90;;;;;;5070021;28;20028;-51
2022/02/12 04:17:42;;;;;;;9.70;3.90;;;-2.60;99.90;;;;;;5070122;28;20066;-56
2022/02/12 04:20:10;;;;;;;7.78;4.50;;;-2.60;99.90;;;;;;5065062;28;20029;-53
2022/02/12 04:22:37;;;;;;;9.07;4.13;;;-2.60;99.90;;;;;;5050249;28;20512;-56
2022/02/12 04:25:05;;;;;;;8.40;4.50;;;-2.60;99.90;;;;;;5050100;28;20049;-53
2022/02/12 04:27:31;;;;;;;8.63;3.95;;;-2.60;99.90;;;;;;5050019;28;20029;-56
2022/02/12 04:29:57;;;;;;;8.73;4.53;;;-2.60;99.90;;;;;;5050323;28;20500;-53
2022/02/12 04:32:23;;;;;;;7.88;4.53;;;-2.60;99.90;;;;;;5049600;28;20029;-52
2022/02/12 04:34:50;;;;;;;6.40;4.30;;;-2.60;99.90;;;;;;5031539;28;20040;-54
2022/02/12 04:37:16;;;;;;;11.57;4.90;;;-2.50;99.90;;;;;;5051243;28;20047;-57
2022/02/12 04:39:43;;;;;;;13.52;4.68;;;-2.50;99.90;;;;;;5069576;28;20385;-53
2022/02/12 04:42:16;;;;;;;10.27;4.65;;;-2.50;99.90;;;;;;5069639;28;20070;-52
2022/02/12 04:44:43;;;;;;;7.68;4.43;;;-2.40;99.90;;;;;;5052512;28;20677;-54
2022/02/12 04:47:09;;;;;;;8.25;4.45;;;-2.40;99.90;;;;;;5064176;28;20031;-54
2022/02/12 04:49:36;;;;;;;6.13;3.80;;;-2.40;99.90;;;;;;5050726;28;20064;-52
2022/02/12 04:52:04;;;;;;;7.53;4.15;;;-2.40;99.90;;;;;;5055527;28;20506;-56
2022/02/12 04:54:29;;;;;;;8.35;3.75;;;-2.40;99.90;;;;;;5068676;28;20024;-54
2022/02/12 04:56:55;;;;;;;8.90;4.55;;;-2.40;99.90;;;;;;5054644;28;20123;-55
2022/02/12 04:59:21;;;;;;;7.50;3.63;;;-2.40;99.90;;;;;;5069018;28;20028;-52
2022/02/12 05:01:48;;;;;;;5.60;3.40;;;-2.40;99.90;;;;;;5051291;28;20029;-54
2022/02/12 05:04:14;;;;;;;11.85;4.75;;;-2.40;99.90;;;;;;5050599;28;20487;-56
2022/02/12 05:06:40;;;;;;;7.63;4.03;;;-2.30;99.90;;;;;;5058572;28;20021;-54
2022/02/12 05:09:05;;;;;;;7.68;3.55;;;-2.30;99.90;;;;;;5057333;28;20080;-56
2022/02/12 05:11:31;;;;;;;9.63;3.92;;;-2.30;99.90;;;;;;5050657;28;20500;-51
2022/02/12 05:13:56;;;;;;;9.20;4.00;;;-2.30;99.90;;;;;;5049360;28;20032;-51
2022/02/12 05:16:22;;;;;;;5.60;3.72;;;-2.30;99.90;;;;;;5063821;28;20098;-55
2022/02/12 05:18:48;;;;;;;10.90;3.42;;;-2.30;99.90;;;;;;5067698;28;20429;-52
2022/02/12 05:21:13;;;;;;;7.55;3.53;;;-2.30;99.90;;;;;;5034787;28;20025;-51
2022/02/12 05:23:39;;;;;;;12.35;4.38;;;-2.30;99.90;;;;;;5049322;28;20025;-53
2022/02/12 05:26:04;;;;;;;10.60;3.80;;;-2.30;99.90;;;;;;5049286;28;20040;-53
2022/02/12 05:28:30;;;;;;;6.82;3.72;;;-2.30;99.90;;;;;;5034983;28;20060;-55
2022/02/12 05:30:56;;;;;;;11.27;4.10;;;-2.30;99.90;;;;;;5068889;28;20408;-57
2022/02/12 05:33:21;;;;;;;8.77;3.95;;;-2.30;99.90;;;;;;5068351;28;20028;-52
2022/02/12 05:35:49;;;;;;;5.80;4.00;;;-2.30;99.90;;;;;;5069230;28;20373;-52
2022/02/12 05:38:17;;;;;;;8.38;4.05;;;-2.30;99.90;;;;;;5068681;28;20108;-56
2022/02/12 05:40:43;;;;;;;9.90;3.25;;;-2.30;99.90;;;;;;5054521;28;20023;-56
2022/02/12 05:43:09;;;;;;;13.65;3.97;;;-2.30;99.90;;;;;;5053589;28;20103;-53
2022/02/12 05:45:34;;;;;;;10.07;3.63;;;-2.30;99.90;;;;;;5068929;28;20412;-52
2022/02/12 05:48:00;;;;;;;6.85;3.80;;;-2.40;99.90;;;;;;5052685;28;20028;-53
2022/02/12 05:50:27;;;;;;;10.70;4.50;;;-2.30;99.90;;;;;;5049344;28;20075;-56
2022/02/12 05:52:54;;;;;;;8.98;3.72;;;-2.40;99.90;;;;;;5048828;28;20048;-56
2022/02/12 05:55:20;;;;;;;5.60;3.83;;;-2.40;99.90;;;;;;5049860;28;20512;-55
2022/02/12 05:57:46;;;;;;;9.63;4.10;;;-2.40;99.90;;;;;;5061962;28;20515;-57
2022/02/12 06:00:12;;;;;;;9.85;4.00;;;-2.40;99.90;;;;;;5052480;28;20029;-55
2022/02/12 06:02:38;;;;;;;6.05;4.18;;;-2.40;99.90;;;;;;5068168;28;20048;-54
2022/02/12 06:05:04;;;;;;;7.43;4.30;;;-2.40;99.90;;;;;;5068914;28;20032;-53
2022/02/12 06:07:30;;;;;;;13.55;4.05;;;-2.40;99.90;;;;;;5060906;28;20511;-56
2022/02/12 06:09:55;;;;;;;9.43;4.20;;;-2.50;99.90;;;;;;5065679;28;20385;-54
2022/02/12 06:12:21;;;;;;;8.50;4.10;;;-2.50;99.90;;;;;;5070643;28;20061;-54
2022/02/12 06:14:46;;;;;;;11.88;5.10;;;-2.50;99.90;;;;;;5060637;28;20059;-56
2022/02/12 06:17:12;;;;;;;9.27;3.85;;;-2.60;99.90;;;;;;5057331;28;20051;-56
2022/02/12 06:19:37;;;;;;;7.68;4.93;;;-2.60;99.90;;;;;;5064136;28;20501;-51
2022/02/12 06:22:03;;;;;;;7.03;4.53;;;-2.60;99.90;;;;;;5052451;28;20036;-56
2022/02/12 06:24:29;;;;;;;14.30;4.18;;;-2.60;99.90;;;;;;5052642;28;20064;-53
2022/02/12 06:26:57;;;;;;;8.13;4.68;;;-2.60;99.90;;;;;;5037113;28;20025;-55
2022/02/12 06:29:23;;;;;;;7.60;4.97;;;-2.70;99.90;;;;;;5060246;28;20032;-57
2022/02/12 06:31:49;;;;;;;8.93;5.00;;;-2.70;99.90;;;;;;5060142;28;20560;-55
2022/02/12 06:34:15;;;;;;;15.40;5.00;;;-2.70;99.90;;;;;;5058885;28;20134;-53
2022/02/12 06:36:41;;;;;;;11.55;5.22;;;-2.70;99.90;;;;;;5061522;28;20037;-54
2022/02/12 06:39:06;;;;;;;12.35;4.60;;;-2.70;99.90;;;;;;5053255;28;20040;-53
2022/02/12 06:41:32;;;;;;;10.13;5.13;;;-2.70;99.90;;;;;;5058739;28;20137;-56
2022/02/12 06:43:57;;;;;;;8.50;4.35;;;-2.70;99.90;;;;;;5063134;28;20037;-55
2022/02/12 06:46:23;;;;;;;12.65;5.45;;;-2.70;99.90;;;;;;5051570;28;20033;-53
2022/02/12 06:48:49;;;;;;;10.27;5.40;;;-2.80;99.90;;;;;;5060146;28;20062;-54
2022/02/12 06:51:17;;;;;;;11.63;5.25;;;-2.70;99.90;;;;;;5058948;28;20032;-57
2022/02/12 06:53:43;;;;;;;7.80;5.28;;;-2.70;99.90;;;;;;5071632;28;20488;-54
2022/02/12 06:56:09;;;;;;;7.95;4.60;;;-2.80;99.90;;;;;;5069101;28;20029;-52
2022/02/12 06:58:35;;;;;;;12.38;5.90;;;-2.80;99.90;;;;;;5051835;28;20048;-52
2022/02/12 07:01:01;;;;;;;8.52;5.28;;;-2.70;99.90;;;;;;5052294;28;20029;-53
2022/02/12 07:03:26;;;;;;;10.70;4.85;;;-2.80;99.90;;;;;;5051681;28;20033;-52
2022/02/12 07:05:52;;;;;;;9.80;5.05;;;-2.70;99.90;;;;;;5051757;28;20032;-54
2022/02/12 07:08:17;;;;;;;11.88;6.47;;;-2.70;99.90;;;;;;5051437;28;20029;-55
2022/02/12 07:10:43;;;;;;;10.25;5.20;;;-2.70;99.90;;;;;;5060429;28;20021;-54
2022/02/12 07:13:11;;;;;;;9.73;5.30;;;-2.70;99.90;;;;;;5071359;28;20031;-53
2022/02/12 07:15:37;;;;;;;12.68;5.30;;;-2.80;99.90;;;;;;5069713;28;20148;-52
2022/02/12 07:18:03;;;;;;;9.32;5.15;;;-2.80;99.90;;;;;;5071475;28;20075;-53
2022/02/12 07:20:29;;;;;;;5.97;4.65;;;-2.70;99.90;;;;;;5071415;28;20021;-53
2022/02/12 07:22:55;;;;;;;6.38;5.35;;;-2.70;99.90;;;;;;5066084;28;20403;-54
2022/02/12 07:25:20;;;;;;;8.32;5.32;;;-2.70;99.90;;;;;;5071044;28;20531;-51
2022/02/12 07:27:47;;;;;;;11.93;6.07;;;-2.70;99.90;;;;;;5063131;28;20037;-54
2022/02/12 07:30:15;;;;;;;10.68;5.43;;;-2.70;99.90;;;;;;5051035;28;20079;-54
2022/02/12 07:32:41;;;;;;;9.82;5.30;;;-2.70;99.90;;;;;;5051824;28;20096;-53
2022/02/12 07:35:10;;;;;;;13.00;6.20;;;-2.70;99.90;;;;;;5050928;28;20063;-57
2022/02/12 07:37:40;;;;;;;7.18;6.05;;;-2.70;99.90;;;;;;5050765;28;20102;-55
2022/02/12 07:40:07;;;;;;;7.90;5.57;;;-2.70;99.90;;;;;;5051165;28;20457;-55
2022/02/12 07:42:33;;;;;;;13.43;6.03;;;-2.70;99.90;;;;;;5055680;28;20024;-54
2022/02/12 07:44:58;;;;;;;13.77;6.20;;;-2.60;99.90;;;;;;5070563;28;20028;-55
2022/02/12 07:47:24;;;;;;;12.70;5.78;;;-2.60;99.90;;;;;;5065258;28;20082;-56
2022/02/12 07:49:50;;;;;;;10.77;5.35;;;-2.60;99.90;;;;;;5055382;28;20025;-53
2022/02/12 07:52:16;;;;;;;10.05;5.47;;;-2.50;99.90;;;;;;5035258;28;20504;-53
2022/02/12 07:54:41;;;;;;;11.40;5.03;;;-2.50;99.90;;;;;;5054148;28;20112;-56
2022/02/12 07:57:08;;;;;;;8.85;4.60;;;-2.40;99.90;;;;;;5016506;28;20128;-55
2022/02/12 07:59:34;;;;;;;7.95;4.22;;;-2.40;99.90;;;;;;5050305;28;20108;-53
2022/02/12 08:02:00;;;;;;;8.82;4.60;;;-2.30;99.90;;;;;;5050073;28;20025;-56
2022/02/12 08:04:25;;;;;;;7.10;3.42;;;-2.20;99.90;;;;;;5050441;28;20485;-54
2022/02/12 08:09:35;;;;;;;9.32;4.35;;;-2.10;99.90;;;;;;5050582;28;20040;-56
2022/02/12 08:12:13;;;;;;;11.18;4.15;;;-2.00;99.90;;;;;;5050176;28;20408;-55
2022/02/12 08:14:42;;;;;;;9.55;3.35;;;-1.90;99.90;;;;;;5050021;28;20104;-53
2022/02/12 08:17:09;;;;;;;16.85;3.75;;;-1.90;99.90;;;;;;5050702;28;20083;-55
2022/02/12 08:19:37;;;;;;;9.48;3.63;;;-1.80;99.90;;;;;;5050372;28;20484;-57
2022/02/12 08:22:03;;;;;;;16.10;4.18;;;-1.70;99.90;;;;;;5049977;28;20044;-56
2022/02/12 08:24:29;;;;;;;9.02;3.20;;;-1.60;99.90;;;;;;5049955;28;20094;-54
2022/02/12 08:26:54;;;;;;;15.63;2.67;;;-1.50;99.90;;;;;;5055516;28;20025;-56
2022/02/12 08:29:20;;;;;;;6.78;2.53;;;-1.40;99.90;;;;;;5069421;28;20073;-55
2022/02/12 08:31:45;;;;;;;9.05;2.72;;;-1.30;99.90;;;;;;5052060;28;20029;-57
2022/02/12 08:34:12;;;;;;;11.85;2.83;;;-1.20;99.90;;;;;;5067136;28;20028;-57
2022/02/12 08:36:37;;;;;;;8.30;2.50;;;-1.00;99.90;;;;;;5069290;28;20101;-54
2022/02/12 08:39:03;;;;;;;10.20;2.95;;;-0.80;99.90;;;;;;5053166;28;20032;-53
2022/02/12 08:41:28;;;;;;;4.65;2.10;;;-0.70;99.90;;;;;;5049087;28;20623;-56
2022/02/12 08:43:54;;;;;;;11.20;3.70;;;-0.60;99.90;;;;;;5064464;28;20043;-55
2022/02/12 08:46:20;;;;;;;12.10;3.13;;;-0.50;99.90;;;;;;5050402;28;20492;-56
2022/02/12 08:48:45;;;;;;;6.75;2.90;;;-0.40;99.90;;;;;;5055879;28;20029;-55
2022/02/12 08:51:11;;;;;;;6.00;2.88;;;-0.20;99.90;;;;;;5049768;28;20068;-52
2022/02/12 08:53:37;;;;;;;11.23;3.22;;;-0.10;99.90;;;;;;5043372;28;20041;-54
2022/02/12 08:56:03;;;;;;;12.30;2.97;;;0.10;99.90;;;;;;5069773;28;20428;-57
2022/02/12 08:58:28;;;;;;;7.38;2.88;;;0.20;99.90;;;;;;5057789;28;20033;-57
2022/02/12 09:00:54;;;;;;;9.18;3.22;;;0.40;99.90;;;;;;5041802;28;20501;-56
2022/02/12 09:03:20;;;;;;;12.90;3.30;;;0.60;99.90;;;;;;5053443;28;20032;-52
2022/02/12 09:05:45;;;;;;;12.35;3.30;;;0.80;99.90;;;;;;5049427;28;20552;-55
2022/02/12 09:08:12;;;;;;;6.85;2.33;;;0.90;99.90;;;;;;5062617;28;20191;-54
2022/02/12 09:10:38;;;;;;;9.55;3.40;;;1.10;99.90;;;;;;5069516;28;20032;-53
2022/02/12 09:13:03;;;;;;;8.45;3.33;;;1.20;99.90;;;;;;5092835;22;20107;-53
2022/02/12 09:15:29;;;;;;;8.32;2.80;;;1.30;99.90;;;;;;5089007;28;20444;-53
2022/02/12 09:17:54;;;;;;;7.20;3.10;;;1.40;99.90;;;;;;5071117;28;20024;-53
2022/02/12 09:20:20;;;;;;;8.35;2.40;;;1.50;99.90;;;;;;5089865;28;20024;-52
2022/02/12 09:22:46;;;;;;;8.10;2.90;;;1.50;99.90;;;;;;5087206;28;20395;-56
2022/02/12 09:25:12;;;;;;;10.93;3.17;;;1.60;99.90;;;;;;5089749;28;20104;-53
2022/02/12 09:27:38;;;;;;;10.82;3.33;;;1.60;99.90;;;;;;5079489;28;20029;-52
2022/02/12 09:30:05;;;;;;;8.35;3.42;;;1.70;99.90;;;;;;5069605;28;20032;-55
2022/02/12 09:32:31;;;;;;;7.88;2.38;;;1.70;99.90;;;;;;5070171;28;20253;-53
2022/02/12 09:34:57;;;;;;;4.68;2.60;;;1.80;99.90;;;;;;5069584;28;20035;-55
2022/02/12 09:37:23;;;;;;;7.32;3.08;;;2.00;99.90;;;;;;5070717;28;20051;-56
2022/02/12 09:39:49;;;;;;;15.77;3.78;;;2.10;99.90;;;;;;5069653;28;20049;-54
2022/02/12 09:42:15;;;;;;;9.65;2.55;;;2.10;99.90;;;;;;5063459;28;20032;-52
2022/02/12 09:44:41;;;;;;;8.13;3.10;;;2.20;99.90;;;;;;5059009;28;20033;-52
2022/02/12 09:47:37;;;;;;;5.75;2.80;;;2.20;99.90;;;;;;5060135;28;20025;-52
2022/02/12 09:50:05;;;;;;;11.75;2.70;;;2.10;99.90;;;;;;5059462;28;20025;-54
2022/02/12 09:52:33;;;;;;;7.60;2.40;;;2.10;99.90;;;;;;5072764;28;20543;-54
2022/02/12 09:54:59;;;;;;;15.45;3.10;;;2.20;99.90;;;;;;5070201;28;20013;-54
2022/02/12 09:57:26;;;;;;;8.77;3.05;;;2.20;99.90;;;;;;5067696;28;20491;-55
2022/02/12 10:00:00;;;;;;;4.20;2.33;;;2.30;99.90;;;;;;5073252;28;20028;-55
2022/02/12 10:02:27;;;;;;;9.25;2.80;;;2.40;99.90;;;;;;5073131;28;20048;-56
2022/02/12 10:05:17;;;;;;;12.60;3.67;;;2.60;99.90;;;;;;5070721;28;20040;-54
2022/02/12 10:07:43;;;;;;;10.75;3.03;;;2.70;99.90;;;;;;5073326;28;20118;-54
2022/02/12 10:10:12;;;;;;;9.15;3.22;;;2.90;99.90;;;;;;5073124;28;20530;-52
2022/02/12 10:12:38;;;;;;;7.57;2.50;;;2.90;99.90;;;;;;5068839;28;20110;-54
2022/02/12 10:15:04;;;;;;;5.43;2.42;;;3.00;99.90;;;;;;5053426;28;20508;-53
2022/02/12 10:17:29;;;;;;;8.20;2.65;;;3.10;99.90;;;;;;5055647;28;20377;-53
2022/02/12 10:19:55;;;;;;;8.85;2.22;;;3.20;99.90;;;;;;5072662;28;20021;-53
2022/02/12 10:22:21;;;;;;;4.82;2.17;;;3.30;99.90;;;;;;5070972;28;20108;-54
2022/02/12 10:25:05;;;;;;;7.00;2.42;;;3.30;99.90;;;;;;5067951;28;20048;-54
2022/02/12 10:27:31;;;;;;;4.85;1.98;;;3.40;99.90;;;;;;5084608;28;20028;-52
2022/02/12 10:30:03;;;;;;;5.22;2.35;;;3.40;99.90;;;;;;5079974;28;20044;-54
2022/02/12 10:32:29;;;;;;;10.00;2.63;;;3.40;99.90;;;;;;5072256;28;20590;-54
2022/02/12 10:34:57;;;;;;;8.18;2.97;;;3.40;99.90;;;;;;5073205;28;20111;-52
2022/02/12 10:37:24;;;;;;;5.20;2.38;;;3.40;99.90;;;;;;5072729;28;20021;-52
2022/02/12 10:39:54;;;;;;;7.53;2.67;;;3.60;99.90;;;;;;5073468;28;20098;-54
2022/02/12 10:42:20;;;;;;;4.35;1.85;;;3.60;99.90;;;;;;5072573;28;20013;-54
2022/02/12 10:44:46;;;;;;;4.05;2.03;;;3.70;99.90;;;;;;5073026;28;20480;-54
2022/02/12 10:47:13;;;;;;;6.75;2.28;;;3.70;99.90;;;;;;5072550;28;20025;-54
2022/02/12 10:49:40;;;;;;;6.82;1.83;;;3.80;99.90;;;;;;5073423;28;20021;-54
2022/02/12 10:52:06;;;;;;;10.55;2.40;;;3.80;99.90;;;;;;5071404;28;20013;-54
2022/02/12 10:54:43;;;;;;;6.00;2.10;;;3.90;99.90;;;;;;5073090;28;20031;-51
2022/02/12 10:57:08;;;;;;;;;;;3.90;99.90;;;;;;5073328;28;20020;-54
2022/02/12 10:59:36;;;;;;;6.13;1.93;;;4.00;99.90;;;;;;5072208;28;19973;-53
2022/02/12 11:02:07;;;;;;;6.10;2.28;;;4.00;99.90;;;;;;5072732;28;20074;-52
2022/02/12 11:04:35;;;;;;;3.33;1.73;;;4.00;99.90;;;;;;5086265;28;20031;-53
2022/02/12 11:07:02;;;;;;;8.00;2.38;;;4.10;99.90;;;;;;5092296;28;20574;-54
2022/02/12 11:09:30;;;;;;;5.57;2.28;;;4.10;99.90;;;;;;5092203;28;20038;-52
2022/02/12 11:12:01;;;;;;;6.22;2.10;;;4.20;99.90;;;;;;5091824;28;20465;-54
2022/02/12 11:14:26;;;;;;;5.22;1.70;;;4.20;99.90;;;;;;5091211;28;20050;-56
2022/02/12 11:16:53;;;;;;;4.38;1.77;;;4.30;99.90;;;;;;5092152;28;20480;-52
2022/02/12 11:19:23;;;;;;;7.80;1.70;;;4.20;99.90;;;;;;5091833;28;20024;-53
2022/02/12 11:21:49;;;;;;;4.38;2.03;;;4.30;99.90;;;;;;5091850;28;20020;-52
2022/02/12 11:24:16;;;;;;;7.63;1.80;;;4.30;99.90;;;;;;5091903;28;20024;-52
2022/02/12 11:26:43;;;;;;;4.97;2.08;;;4.30;99.90;;;;;;5092032;28;20024;-51
2022/02/12 11:29:31;;;;;;;4.53;1.88;;;4.40;99.90;;;;;;5073337;28;20783;-51
2022/02/12 11:32:14;;;;;;;6.50;2.17;;;4.30;99.90;;;;;;5091506;28;20039;-54
2022/02/12 11:35:08;;;;;;;9.35;2.38;;;4.30;99.90;;;;;;5091546;28;20051;-53
2022/02/12 11:37:37;;;;;;;4.40;1.73;;;4.30;99.90;;;;;;5086496;28;20032;-52
2022/02/12 11:40:24;;;;;;;5.30;2.08;;;4.40;99.90;;;;;;5082810;28;20021;-52
2022/02/12 11:42:54;;;;;;;9.18;1.88;;;4.40;99.90;;;;;;5070700;28;20103;-50
2022/02/12 11:45:34;;;;;;;4.47;1.75;;;4.40;99.90;;;;;;5071137;28;20021;-51
2022/02/12 11:48:10;;;;;;;4.88;1.80;;;4.40;99.90;;;;;;5071007;28;20025;-52
2022/02/12 11:50:43;;;;;;;4.60;1.50;;;4.40;99.90;;;;;;5071457;28;20108;-53
2022/02/12 11:53:43;;;;;;;7.78;1.98;;;4.40;99.90;;;;;;5070447;28;20154;-52
2022/02/12 11:56:18;;;;;;;6.07;1.70;;;4.40;99.90;;;;;;5070832;28;20454;-53
2022/02/12 11:58:44;;;;;;;10.05;1.83;;;4.40;99.90;;;;;;5070812;28;20373;-54
2022/02/12 12:01:22;;;;;;;7.55;1.92;;;4.50;99.90;;;;;;5071815;28;20020;-52
2022/02/12 12:04:04;;;;;;;6.45;1.77;;;4.50;99.90;;;;;;5071120;28;20028;-53
2022/02/12 12:06:30;;;;;;;6.88;1.95;;;4.50;99.90;;;;;;5077168;28;20029;-53
2022/02/12 12:09:11;;;;;;;4.18;1.70;;;4.60;99.90;;;;;;5090736;28;20026;-52
2022/02/12 12:11:37;;;;;;;4.75;1.50;;;4.70;99.90;;;;;;5078970;28;20100;-51
2022/02/12 12:14:22;;;;;;;4.45;1.73;;;4.70;99.90;;;;;;5078146;28;20028;-54
2022/02/12 12:16:53;;;;;;;3.85;1.40;;;4.70;99.90;;;;;;5091245;28;20503;-53
2022/02/12 12:19:27;;;;;;;3.30;1.55;;;4.90;99.90;;;;;;5073699;28;20024;-52
2022/02/12 12:22:00;;;;;;;7.72;2.00;;;4.90;99.90;;;;;;5066651;28;20017;-53
2022/02/12 12:24:26;;;;;;;3.95;1.30;;;5.00;99.90;;;;;;5061739;28;20085;-53
2022/02/12 12:26:52;;;;;;;8.38;2.38;;;5.00;99.90;;;;;;5069246;28;20029;-54
2022/02/12 12:32:06;;;;;;;4.45;1.73;;;5.10;99.90;;;;;;5056862;28;20068;-52
2022/02/12 12:34:33;;;;;;;7.72;1.80;;;5.10;99.90;;;;;;5067814;28;20101;-53
2022/02/12 12:37:01;;;;;;;4.30;2.08;;;5.10;99.90;;;;;;5069562;28;20032;-51
2022/02/12 12:39:32;;;;;;;6.60;1.20;;;5.10;99.90;;;;;;5072025;28;20028;-52
2022/02/12 12:41:59;;;;;;;3.53;1.50;;;5.10;99.90;;;;;;5047921;28;20025;-56
2022/02/12 12:44:24;;;;;;;6.35;1.58;;;5.10;99.90;;;;;;5069616;28;20400;-52
2022/02/12 12:46:52;;;;;;;5.05;2.05;;;5.10;99.90;;;;;;5069549;28;20028;-53
2022/02/12 12:49:26;;;;;;;4.78;1.88;;;5.10;99.90;;;;;;5069941;28;20583;-51
2022/02/12 12:51:52;;;;;;;9.77;2.58;;;5.00;99.90;;;;;;5070271;28;20032;-54
2022/02/12 12:54:54;;;;;;;11.05;2.38;;;5.00;99.90;;;;;;5069163;28;20032;-51
2022/02/12 12:57:28;;;;;;;6.65;2.05;;;5.00;99.90;;;;;;5057457;28;20112;-52
2022/02/12 12:59:56;;;;;;;7.38;2.05;;;5.00;99.90;;;;;;5063970;28;20023;-53